Pagrindinis puslapis
METAR-TAF:

METAR-TAF

Oro uostai :

Villamontes, Bolivija

platuma: 21-15S, ilguma: 063-27W, Aukštis: 398 m

Dabartinis oras

Ataskaita buvo paskelbta 13 valandos ir 48 minutes, ne 20:00 UTC
Ramus vėjas
Temperatūra 26°C
Drėgmė 39%
Slėgis 1007 hPa
Matomumas 10 km arba daugiau

METAR: SLVM 172000Z 00000KT 9999 NSC 26/11 Q1007

Laikas: 05:48 (09:48 UTC)


TAF: trūkstamas

Orai ataskaitas ir orų prognozės (METAR, TAF).

turimą stotys yra geltonos ir raudonos taškus žemėlapyje.

Perkelti pele per norėdami pamatyti stoties vardą.

Tada spustelėkite, norėdami matyti oro stebėjimo ir prognozės.

Norėdami pakeisti žemėlapį: spustelėkite ant žalios mygtukų su juodo kryžiaus žemyn,; žalią mygtuką su brūkšneliu, jei norite nutolinti; arba žalių rodyklių gretimoms žemėlapius.


METAR-TAF: